Terminal Aerodrome Forecast
Issued by NWS Grand Rapids, MI

Home | Current Version | Previous Version | Text Only | Print | Product List | Glossary On
Versions: 1 2 3 4 5 6 7 8 9 10 11 12 13 14
140
FTUS43 KGRR 132340
TAFGRR
TAF
KGRR 132340Z 1400/1424 33008KT P6SM BKN035
     FM140600 12004KT P6SM SCT040
     FM141500 14010KT P6SM SCT150=

USA.gov is the U.S. government's official web portal to all federal, state and local government web resources and services.